createdAt,value
2018-09-10T00:01:38.630Z,81.20
2018-09-10T00:04:07.792Z,81.20
2018-09-10T00:06:36.911Z,81.00
2018-09-10T00:09:08.609Z,81.30
2018-09-10T00:11:38.252Z,81.30
2018-09-10T00:14:07.405Z,81.20
2018-09-10T00:16:36.580Z,80.60
2018-09-10T00:19:05.714Z,80.70
2018-09-10T00:21:34.828Z,80.90
2018-09-10T00:24:03.966Z,80.90
2018-09-10T00:26:33.089Z,81.30
2018-09-10T00:29:02.218Z,81.80
2018-09-10T00:31:31.629Z,82.10
2018-09-10T00:34:00.768Z,81.60
2018-09-10T00:36:29.894Z,82.90
2018-09-10T00:38:59.043Z,82.60
2018-09-10T00:41:28.157Z,82.50
2018-09-10T00:43:57.621Z,81.80
2018-09-10T00:46:26.753Z,82.40
2018-09-10T00:48:55.882Z,82.40
2018-09-10T00:51:25.041Z,82.50
2018-09-10T00:53:54.170Z,81.90
2018-09-10T00:56:23.317Z,81.90
2018-09-10T00:58:52.897Z,81.70
2018-09-10T01:01:22.041Z,82.10
2018-09-10T01:03:51.285Z,81.40
2018-09-10T01:06:20.417Z,82.40
2018-09-10T01:08:49.577Z,82.80
2018-09-10T01:11:18.726Z,82.20
2018-09-10T01:13:47.857Z,82.10
2018-09-10T01:16:16.981Z,82.20
2018-09-10T01:18:46.121Z,82.20
2018-09-10T01:21:15.257Z,82.40
2018-09-10T01:23:44.397Z,82.10
2018-09-10T01:26:13.883Z,82.30
2018-09-10T01:28:43.059Z,82.30
2018-09-10T01:31:12.193Z,82.50
2018-09-10T01:33:46.604Z,82.50
2018-09-10T01:36:15.756Z,82.40
2018-09-10T01:38:44.900Z,82.90
2018-09-10T01:41:14.047Z,82.90
2018-09-10T01:43:43.165Z,83.30
2018-09-10T01:46:12.407Z,83.20
2018-09-10T01:48:41.557Z,83.40
2018-09-10T01:51:10.677Z,83.20
2018-09-10T01:53:40.074Z,84.00
2018-09-10T01:56:09.227Z,83.20
2018-09-10T01:58:38.392Z,83.20
2018-09-10T02:01:07.521Z,83.50
2018-09-10T02:03:36.705Z,83.50
2018-09-10T02:06:05.837Z,83.40
2018-09-10T02:08:35.090Z,83.20
2018-09-10T02:11:04.209Z,83.50
2018-09-10T02:13:33.377Z,83.30
2018-09-10T02:16:02.533Z,83.90
2018-09-10T02:18:31.677Z,84.00
2018-09-10T02:21:00.793Z,83.50
2018-09-10T02:23:29.983Z,84.00
2018-09-10T02:25:59.080Z,84.30
2018-09-10T02:28:35.026Z,84.50
2018-09-10T02:31:04.778Z,84.40
2018-09-10T02:33:33.930Z,84.10
2018-09-10T02:36:03.489Z,84.70
2018-09-10T02:38:32.656Z,84.90
2018-09-10T02:41:01.768Z,85.60
2018-09-10T02:43:30.906Z,84.70
2018-09-10T02:46:00.114Z,85.40
2018-09-10T02:48:29.248Z,84.30
2018-09-10T02:50:58.406Z,84.50
2018-09-10T02:53:34.236Z,84.80
2018-09-10T02:56:03.393Z,84.40
2018-09-10T02:58:32.527Z,84.30
2018-09-10T03:01:01.676Z,84.50
2018-09-10T03:03:30.792Z,85.00
2018-09-10T03:06:00.026Z,84.50
2018-09-10T03:08:29.181Z,84.70
2018-09-10T03:10:58.390Z,84.70
2018-09-10T03:13:27.512Z,84.50
2018-09-10T03:15:56.649Z,84.50
2018-09-10T03:18:32.465Z,84.20
2018-09-10T03:21:01.590Z,84.80
2018-09-10T03:23:30.757Z,84.90
2018-09-10T03:25:59.908Z,85.70
2018-09-10T03:28:29.057Z,85.20
2018-09-10T03:30:58.215Z,85.50
2018-09-10T03:33:27.416Z,85.50
2018-09-10T03:35:56.490Z,85.70
2018-09-10T03:38:25.633Z,85.80
2018-09-10T03:40:54.766Z,85.90
2018-09-10T03:43:23.909Z,86.00
2018-09-10T03:45:53.033Z,85.80
2018-09-10T03:48:22.177Z,86.20
2018-09-10T03:50:51.301Z,86.30
2018-09-10T03:53:20.572Z,86.10
2018-09-10T03:55:49.703Z,86.40
2018-09-10T03:58:18.842Z,86.20
2018-09-10T04:00:48.028Z,86.40
2018-09-10T04:03:17.169Z,86.40
2018-09-10T04:05:46.309Z,86.10
2018-09-10T04:08:15.442Z,86.10
2018-09-10T04:10:44.590Z,86.50
2018-09-10T04:13:13.742Z,86.70
2018-09-10T04:15:42.899Z,86.80
2018-09-10T04:18:12.032Z,86.80
2018-09-10T04:20:41.189Z,87.20
2018-09-10T04:23:10.450Z,86.50
2018-09-10T04:25:39.601Z,86.10
2018-09-10T04:28:08.725Z,86.20
2018-09-10T04:30:37.942Z,87.30
2018-09-10T04:33:07.123Z,87.90
2018-09-10T04:35:36.237Z,87.80
2018-09-10T04:38:05.478Z,87.20
2018-09-10T04:40:34.603Z,87.40
2018-09-10T04:43:03.722Z,87.60
2018-09-10T04:45:32.878Z,87.50
2018-09-10T04:48:08.778Z,87.80
2018-09-10T04:50:37.917Z,87.50
2018-09-10T04:53:07.043Z,87.50
2018-09-10T04:55:36.290Z,87.40
2018-09-10T04:58:05.411Z,88.00
2018-09-10T05:00:34.541Z,87.50
2018-09-10T05:03:03.685Z,87.60
2018-09-10T05:05:32.849Z,88.00
2018-09-10T05:08:02.475Z,87.60
2018-09-10T05:10:31.629Z,87.60
2018-09-10T05:13:01.812Z,87.80
2018-09-10T05:15:30.925Z,87.10
2018-09-10T05:18:00.073Z,87.70
2018-09-10T05:20:29.349Z,87.80
2018-09-10T05:22:58.508Z,87.60
2018-09-10T05:25:27.637Z,87.10
2018-09-10T05:27:56.802Z,87.20
2018-09-10T05:30:25.947Z,87.10
2018-09-10T05:32:55.066Z,86.90
2018-09-10T05:35:24.198Z,86.20
2018-09-10T05:37:53.341Z,87.30
2018-09-10T05:40:22.449Z,87.40
2018-09-10T05:42:51.984Z,86.80
2018-09-10T05:45:21.110Z,86.60
2018-09-10T05:47:50.226Z,87.20
2018-09-10T05:50:19.361Z,87.20
2018-09-10T05:52:48.482Z,87.30
2018-09-10T05:55:17.593Z,87.40
2018-09-10T05:57:46.729Z,87.70
2018-09-10T06:00:15.857Z,88.00
2018-09-10T06:02:44.966Z,87.90
2018-09-10T06:05:14.112Z,86.90
2018-09-10T06:07:43.528Z,87.20
2018-09-10T06:10:12.639Z,86.60
2018-09-10T06:12:41.765Z,86.40
2018-09-10T06:15:10.935Z,86.50
2018-09-10T06:17:40.062Z,85.70
2018-09-10T06:20:09.517Z,85.50
2018-09-10T06:22:38.642Z,85.80
2018-09-10T06:25:07.767Z,85.70
2018-09-10T06:27:36.898Z,85.60
2018-09-10T06:30:06.256Z,85.30
2018-09-10T06:32:35.809Z,85.10
2018-09-10T06:35:05.093Z,85.10
2018-09-10T06:37:34.231Z,84.70
2018-09-10T06:40:03.367Z,85.50
2018-09-10T06:42:32.505Z,85.10
2018-09-10T06:45:02.122Z,85.10
2018-09-10T06:47:31.245Z,84.70
2018-09-10T06:50:00.386Z,84.20
2018-09-10T06:52:29.801Z,84.30
2018-09-10T06:54:58.925Z,83.90
2018-09-10T06:57:28.050Z,84.00
2018-09-10T06:59:57.184Z,83.70
2018-09-10T07:02:26.345Z,83.80
2018-09-10T07:04:55.790Z,83.20
2018-09-10T07:07:24.954Z,83.20
2018-09-10T07:09:54.085Z,83.50
2018-09-10T07:12:29.481Z,83.40
2018-09-10T07:14:58.561Z,83.50
2018-09-10T07:17:27.737Z,82.30
2018-09-10T07:19:56.884Z,82.10
2018-09-10T07:22:26.028Z,82.00
2018-09-10T07:24:55.149Z,81.90
2018-09-10T07:27:24.333Z,83.50
2018-09-10T07:29:53.508Z,83.50
2018-09-10T07:32:22.676Z,81.10
2018-09-10T07:34:51.817Z,80.50
2018-09-10T07:37:20.937Z,79.10
2018-09-10T07:39:50.094Z,79.50
2018-09-10T07:42:19.221Z,79.40
2018-09-10T07:44:48.412Z,78.00
2018-09-10T07:47:17.614Z,77.70
2018-09-10T07:49:46.745Z,77.10
2018-09-10T07:52:15.902Z,77.20
2018-09-10T07:54:45.018Z,76.40
2018-09-10T07:57:14.474Z,77.90
2018-09-10T07:59:43.678Z,76.70
2018-09-10T08:02:12.797Z,74.70
2018-09-10T08:04:41.984Z,74.80
2018-09-10T08:07:11.137Z,74.50
2018-09-10T08:09:40.349Z,74.30
2018-09-10T08:12:09.397Z,73.70
2018-09-10T08:14:38.753Z,74.40
2018-09-10T08:17:07.981Z,75.30
2018-09-10T08:19:37.109Z,75.50
2018-09-10T08:22:06.470Z,74.00
2018-09-10T08:24:35.614Z,73.30
2018-09-10T08:27:04.828Z,72.70
2018-09-10T08:29:33.997Z,71.70
2018-09-10T08:32:03.112Z,71.20
2018-09-10T08:34:32.262Z,69.70
2018-09-10T08:37:01.469Z,70.00
2018-09-10T08:39:30.596Z,69.90
2018-09-10T08:41:59.750Z,67.10
2018-09-10T08:44:29.174Z,67.20
2018-09-10T08:46:58.612Z,69.20
2018-09-10T08:49:27.813Z,68.60
2018-09-10T08:51:56.941Z,67.90
2018-09-10T08:54:26.212Z,68.10
2018-09-10T08:56:55.325Z,64.00
2018-09-10T08:59:24.462Z,63.20
2018-09-10T09:01:53.653Z,63.60
2018-09-10T09:04:23.013Z,64.30
2018-09-10T09:06:52.248Z,65.50
2018-09-10T09:09:21.385Z,67.60
2018-09-10T09:11:50.545Z,66.70
2018-09-10T09:14:19.699Z,64.20
2018-09-10T09:16:48.825Z,64.20
2018-09-10T09:19:18.117Z,61.40
2018-09-10T09:21:47.229Z,62.70
2018-09-10T09:24:16.349Z,65.10
2018-09-10T09:26:45.545Z,63.60
2018-09-10T09:29:15.098Z,66.40
2018-09-10T09:31:44.237Z,66.60
2018-09-10T09:34:13.361Z,64.90
2018-09-10T09:36:47.881Z,64.80
2018-09-10T09:39:22.242Z,62.40
2018-09-10T09:41:56.604Z,61.10
2018-09-10T09:44:30.953Z,60.50
2018-09-10T09:47:00.105Z,60.40
2018-09-10T09:49:29.287Z,60.80
2018-09-10T09:51:58.406Z,59.80
2018-09-10T09:54:27.556Z,59.60
2018-09-10T09:56:56.696Z,59.00
2018-09-10T09:59:26.161Z,61.20
2018-09-10T10:02:00.726Z,60.60
2018-09-10T10:04:29.941Z,57.40
2018-09-10T10:06:59.025Z,57.10
2018-09-10T10:09:28.149Z,59.40
2018-09-10T10:11:57.346Z,59.10
2018-09-10T10:14:26.405Z,55.70
2018-09-10T10:16:55.530Z,54.30
2018-09-10T10:19:24.677Z,56.00
2018-09-10T10:21:53.852Z,58.90
2018-09-10T10:24:22.948Z,57.20
2018-09-10T10:26:52.082Z,53.20
2018-09-10T10:29:21.244Z,55.50
2018-09-10T10:31:50.417Z,53.60
2018-09-10T10:34:19.546Z,55.70
2018-09-10T10:36:48.676Z,56.40
2018-09-10T10:39:17.875Z,56.30
2018-09-10T10:41:47.047Z,56.40
2018-09-10T10:44:16.160Z,53.30
2018-09-10T10:46:45.281Z,52.20
2018-09-10T10:49:14.417Z,50.20
2018-09-10T10:51:43.537Z,52.00
2018-09-10T10:54:12.657Z,54.80
2018-09-10T10:56:41.786Z,54.10
2018-09-10T10:59:10.910Z,53.60
2018-09-10T11:01:40.038Z,51.60
2018-09-10T11:04:09.192Z,51.70
2018-09-10T11:06:38.313Z,53.40
2018-09-10T11:09:08.673Z,54.40
2018-09-10T11:11:38.212Z,52.60
2018-09-10T11:14:07.344Z,51.50
2018-09-10T11:16:36.531Z,54.20
2018-09-10T11:19:05.757Z,53.20
2018-09-10T11:21:34.913Z,53.80
2018-09-10T11:24:04.047Z,53.80
2018-09-10T11:26:33.176Z,52.50
2018-09-10T11:29:03.518Z,54.40
2018-09-10T11:31:32.640Z,54.10
2018-09-10T11:34:01.772Z,49.80
2018-09-10T11:36:31.104Z,52.00
2018-09-10T11:39:00.225Z,53.50
2018-09-10T11:41:29.351Z,53.30
2018-09-10T11:43:58.522Z,50.90
2018-09-10T11:46:27.678Z,51.40
2018-09-10T11:48:56.793Z,52.00
2018-09-10T11:51:25.937Z,52.00
2018-09-10T11:53:55.077Z,52.30
2018-09-10T11:56:24.223Z,49.10
2018-09-10T11:58:53.349Z,50.00
2018-09-10T12:01:22.485Z,49.60
2018-09-10T12:03:51.742Z,49.50
2018-09-10T12:06:20.860Z,50.30
2018-09-10T12:08:49.998Z,52.50
2018-09-10T12:11:19.172Z,49.30
2018-09-10T12:13:48.451Z,48.70
2018-09-10T12:16:17.589Z,50.30
2018-09-10T12:18:46.729Z,52.90
2018-09-10T12:21:15.848Z,53.20
2018-09-10T12:23:45.007Z,53.50
2018-09-10T12:26:14.167Z,52.30
2018-09-10T12:28:43.285Z,50.90
2018-09-10T12:31:12.529Z,53.10
2018-09-10T12:33:41.810Z,53.10
2018-09-10T12:36:10.928Z,54.40
2018-09-10T12:38:40.144Z,54.60
2018-09-10T12:41:09.278Z,53.10
2018-09-10T12:43:38.477Z,52.90
2018-09-10T12:46:07.629Z,54.00
2018-09-10T12:48:36.750Z,52.90
2018-09-10T12:51:05.909Z,52.60
2018-09-10T12:53:35.037Z,54.40
2018-09-10T12:56:04.174Z,50.60
2018-09-10T12:58:33.293Z,50.20
2018-09-10T13:01:02.429Z,50.20
2018-09-10T13:03:31.549Z,50.90
2018-09-10T13:06:00.692Z,49.30
2018-09-10T13:08:29.831Z,43.70
2018-09-10T13:10:58.954Z,41.60
2018-09-10T13:13:28.089Z,44.40
2018-09-10T13:15:57.214Z,44.70
2018-09-10T13:18:26.343Z,43.70
2018-09-10T13:20:55.484Z,43.90
2018-09-10T13:23:24.612Z,45.10
2018-09-10T13:25:53.752Z,45.30
2018-09-10T13:28:22.868Z,46.80
2018-09-10T13:30:52.061Z,47.70
2018-09-10T13:33:21.185Z,49.70
2018-09-10T13:35:50.322Z,47.90
2018-09-10T13:38:19.461Z,46.60
2018-09-10T13:40:48.598Z,47.50
2018-09-10T13:43:17.730Z,49.30
2018-09-10T13:45:46.864Z,51.40
2018-09-10T13:48:15.985Z,47.40
2018-09-10T13:50:45.117Z,49.00
2018-09-10T13:53:14.245Z,47.90
2018-09-10T13:55:43.389Z,46.60
2018-09-10T13:58:12.509Z,44.90
2018-09-10T14:00:41.638Z,48.20
2018-09-10T14:03:10.778Z,46.30
2018-09-10T14:05:39.902Z,45.80
2018-09-10T14:08:09.289Z,47.90
2018-09-10T14:10:38.468Z,45.90
2018-09-10T14:13:07.553Z,44.30
2018-09-10T14:15:36.685Z,45.20
2018-09-10T14:18:05.906Z,48.10
2018-09-10T14:20:35.024Z,48.00
2018-09-10T14:23:04.161Z,46.90
2018-09-10T14:25:33.304Z,48.00
2018-09-10T14:28:02.474Z,47.50
2018-09-10T14:30:31.615Z,46.90
2018-09-10T14:33:00.751Z,47.00
2018-09-10T14:35:29.865Z,46.80
2018-09-10T14:37:59.008Z,48.20
2018-09-10T14:40:28.130Z,48.50
2018-09-10T14:42:57.272Z,46.00
2018-09-10T14:45:26.413Z,48.80
2018-09-10T14:47:55.537Z,45.30
2018-09-10T14:50:24.724Z,43.90
2018-09-10T14:52:53.830Z,46.10
2018-09-10T14:55:22.974Z,42.30
2018-09-10T14:57:52.111Z,44.00
2018-09-10T15:00:25.709Z,45.10
2018-09-10T15:02:55.729Z,45.50
2018-09-10T15:05:24.898Z,48.20
2018-09-10T15:07:54.885Z,48.00
2018-09-10T15:10:24.009Z,47.00
2018-09-10T15:12:53.137Z,46.60
2018-09-10T15:15:22.281Z,46.00
2018-09-10T15:17:51.406Z,46.80
2018-09-10T15:20:20.669Z,46.90
2018-09-10T15:22:49.832Z,47.20
2018-09-10T15:25:18.969Z,48.20
2018-09-10T15:27:48.110Z,46.50
2018-09-10T15:30:17.363Z,45.50
2018-09-10T15:32:46.633Z,47.30
2018-09-10T15:35:15.770Z,47.60
2018-09-10T15:37:44.889Z,47.80
2018-09-10T15:40:14.035Z,48.30
2018-09-10T15:42:43.457Z,48.90
2018-09-10T15:45:12.609Z,48.10
2018-09-10T15:47:41.729Z,49.90
2018-09-10T15:50:10.905Z,50.70
2018-09-10T15:52:40.034Z,49.90
2018-09-10T15:55:09.173Z,49.70
2018-09-10T15:57:38.355Z,51.70
2018-09-10T16:00:07.710Z,52.30
2018-09-10T16:02:36.785Z,51.80
2018-09-10T16:05:06.210Z,51.80
2018-09-10T16:07:35.345Z,51.40
2018-09-10T16:10:04.695Z,52.70
2018-09-10T16:12:33.822Z,53.30
2018-09-10T16:15:02.970Z,53.50
2018-09-10T16:17:32.101Z,53.90
2018-09-10T16:20:01.234Z,53.20
2018-09-10T16:22:30.377Z,53.90
2018-09-10T16:24:59.512Z,54.40
2018-09-10T16:27:29.058Z,55.50
2018-09-10T16:29:58.165Z,52.70
2018-09-10T16:32:27.302Z,53.40
2018-09-10T16:34:56.502Z,54.60
2018-09-10T16:37:25.689Z,55.30
2018-09-10T16:39:54.855Z,56.20
2018-09-10T16:42:23.993Z,55.60
2018-09-10T16:44:53.185Z,55.00
2018-09-10T16:47:22.321Z,54.70
2018-09-10T16:49:51.453Z,56.10
2018-09-10T16:52:20.609Z,56.70
2018-09-10T16:54:49.811Z,56.80
2018-09-10T16:57:18.933Z,57.30
2018-09-10T16:59:48.065Z,58.20
2018-09-10T17:02:17.185Z,59.00
2018-09-10T17:04:46.324Z,58.50
2018-09-10T17:07:15.454Z,58.40
2018-09-10T17:09:44.593Z,59.00
2018-09-10T17:12:13.797Z,59.40
2018-09-10T17:14:42.948Z,59.60
2018-09-10T17:17:12.025Z,59.90
2018-09-10T17:19:41.146Z,61.10
2018-09-10T17:22:10.453Z,61.90
2018-09-10T17:24:39.587Z,61.20
2018-09-10T17:27:08.722Z,61.70
2018-09-10T17:29:37.849Z,61.50
2018-09-10T17:32:07.005Z,62.20
2018-09-10T17:34:36.501Z,62.60
2018-09-10T17:37:05.661Z,63.10
2018-09-10T17:39:34.785Z,63.80
2018-09-10T17:42:03.934Z,63.50
2018-09-10T17:44:33.066Z,63.40
2018-09-10T17:47:02.264Z,64.10
2018-09-10T17:49:31.365Z,64.20
2018-09-10T17:52:00.553Z,64.40
2018-09-10T17:54:29.694Z,65.10
2018-09-10T17:56:58.904Z,65.40
2018-09-10T17:59:28.077Z,64.40
2018-09-10T18:01:57.210Z,64.60
2018-09-10T18:04:26.337Z,64.20
2018-09-10T18:06:55.468Z,64.90
2018-09-10T18:09:24.628Z,65.00
2018-09-10T18:11:53.803Z,65.40
2018-09-10T18:14:22.962Z,65.00
2018-09-10T18:16:52.097Z,66.40
2018-09-10T18:19:21.841Z,65.70
2018-09-10T18:21:51.080Z,66.40
2018-09-10T18:24:20.211Z,68.10
2018-09-10T18:26:49.341Z,67.50
2018-09-10T18:29:18.536Z,65.90
2018-09-10T18:31:47.774Z,63.60
2018-09-10T18:34:16.915Z,62.70
2018-09-10T18:36:46.559Z,62.90
2018-09-10T18:39:15.710Z,63.00
2018-09-10T18:41:44.853Z,63.50
2018-09-10T18:44:14.049Z,63.10
2018-09-10T18:46:43.185Z,62.00
2018-09-10T18:49:12.338Z,61.20
2018-09-10T18:51:41.505Z,61.20
2018-09-10T18:54:10.637Z,61.40
2018-09-10T18:56:39.794Z,60.40
2018-09-10T18:59:08.933Z,61.20
2018-09-10T19:01:38.162Z,61.90
2018-09-10T19:04:07.309Z,62.30
2018-09-10T19:06:36.478Z,62.40
2018-09-10T19:09:08.462Z,60.60
2018-09-10T19:11:37.594Z,60.60
2018-09-10T19:14:06.979Z,60.40
2018-09-10T19:16:36.373Z,61.20
2018-09-10T19:19:05.577Z,60.80
2018-09-10T19:21:34.753Z,61.60
2018-09-10T19:24:03.954Z,61.80
2018-09-10T19:26:33.150Z,63.60
2018-09-10T19:29:02.361Z,63.90
2018-09-10T19:31:31.561Z,63.50
2018-09-10T19:34:00.695Z,63.00
2018-09-10T19:36:29.853Z,63.60
2018-09-10T19:38:58.991Z,63.00
2018-09-10T19:41:28.125Z,64.60
2018-09-10T19:43:57.326Z,65.00
2018-09-10T19:46:26.424Z,65.80
2018-09-10T19:48:55.637Z,65.10
2018-09-10T19:51:24.790Z,65.00
2018-09-10T19:53:53.950Z,64.50
2018-09-10T19:56:23.107Z,65.80
2018-09-10T19:58:52.410Z,65.30
2018-09-10T20:01:21.629Z,65.40
2018-09-10T20:03:50.782Z,67.50
2018-09-10T20:06:20.053Z,66.20
2018-09-10T20:08:49.200Z,65.60
2018-09-10T20:11:18.347Z,66.40
2018-09-10T20:13:47.501Z,66.80
2018-09-10T20:16:16.901Z,66.50
2018-09-10T20:18:46.553Z,65.20
2018-09-10T20:21:16.102Z,64.80
2018-09-10T20:23:45.289Z,64.70
2018-09-10T20:26:14.561Z,64.70
2018-09-10T20:28:43.857Z,65.30
2018-09-10T20:31:13.146Z,64.10
2018-09-10T20:33:47.653Z,63.70
2018-09-10T20:36:17.125Z,63.20
2018-09-10T20:38:46.345Z,62.80
2018-09-10T20:41:15.685Z,62.40
2018-09-10T20:43:44.882Z,62.50
2018-09-10T20:46:14.202Z,61.70
2018-09-10T20:48:43.376Z,61.80
2018-09-10T20:51:12.565Z,62.00
2018-09-10T20:53:41.715Z,61.20
2018-09-10T20:56:10.853Z,61.20
2018-09-10T20:58:40.100Z,61.30
2018-09-10T21:01:09.237Z,61.70
2018-09-10T21:03:38.576Z,61.40
2018-09-10T21:06:08.321Z,61.40
2018-09-10T21:08:37.513Z,61.30
2018-09-10T21:11:06.725Z,60.90
2018-09-10T21:13:35.951Z,61.00
2018-09-10T21:16:05.229Z,61.40
2018-09-10T21:18:41.065Z,61.30
2018-09-10T21:21:10.265Z,61.20
2018-09-10T21:23:39.493Z,61.50
2018-09-10T21:26:08.825Z,61.70
2018-09-10T21:28:37.989Z,61.50
2018-09-10T21:31:07.345Z,61.70
2018-09-10T21:33:36.550Z,61.70
2018-09-10T21:36:05.974Z,61.70
2018-09-10T21:38:35.128Z,61.50
2018-09-10T21:41:04.253Z,62.00
2018-09-10T21:43:33.416Z,61.70
2018-09-10T21:46:02.559Z,62.20
2018-09-10T21:48:31.713Z,62.20
2018-09-10T21:51:00.862Z,62.30
2018-09-10T21:53:30.037Z,62.10
2018-09-10T21:55:59.165Z,61.80
2018-09-10T21:58:28.337Z,62.10
2018-09-10T22:00:58.397Z,62.50
2018-09-10T22:03:27.898Z,62.70
2018-09-10T22:05:57.037Z,62.40
2018-09-10T22:08:26.189Z,63.40
2018-09-10T22:10:55.402Z,63.10
2018-09-10T22:13:24.545Z,62.60
2018-09-10T22:15:53.688Z,62.50
2018-09-10T22:18:22.836Z,62.50
2018-09-10T22:20:51.985Z,62.40
2018-09-10T22:23:21.138Z,62.80
2018-09-10T22:25:50.265Z,62.80
2018-09-10T22:28:19.410Z,62.80
2018-09-10T22:30:48.564Z,63.10
2018-09-10T22:33:17.709Z,63.10
2018-09-10T22:35:46.847Z,63.60
2018-09-10T22:38:15.989Z,64.00
2018-09-10T22:40:45.133Z,63.30
2018-09-10T22:43:14.288Z,63.60
2018-09-10T22:45:43.420Z,63.50
2018-09-10T22:48:12.553Z,63.60
2018-09-10T22:50:41.678Z,63.70
2018-09-10T22:53:10.837Z,64.50
2018-09-10T22:55:40.025Z,64.00
2018-09-10T22:58:09.157Z,64.10
2018-09-10T23:00:38.296Z,64.00
2018-09-10T23:03:07.421Z,64.00
2018-09-10T23:05:36.564Z,64.00
2018-09-10T23:08:05.729Z,64.10
2018-09-10T23:10:34.881Z,64.00
2018-09-10T23:13:04.001Z,64.20
2018-09-10T23:15:33.124Z,64.00
2018-09-10T23:18:02.265Z,63.90
2018-09-10T23:20:31.450Z,64.40
2018-09-10T23:23:00.573Z,64.10
2018-09-10T23:25:29.704Z,64.10
2018-09-10T23:27:58.897Z,64.80
2018-09-10T23:30:28.062Z,64.20
2018-09-10T23:32:57.185Z,64.10
2018-09-10T23:35:26.326Z,63.80
2018-09-10T23:37:55.465Z,63.90
2018-09-10T23:40:24.588Z,64.00
2018-09-10T23:42:53.749Z,63.80
2018-09-10T23:45:22.866Z,63.90
2018-09-10T23:47:52.038Z,63.90
2018-09-10T23:50:21.232Z,63.70
2018-09-10T23:52:50.384Z,63.30
2018-09-10T23:55:19.506Z,63.40
2018-09-10T23:57:48.637Z,63.50
